sensor_id;sensor_type;location;lat;lon;timestamp;pressure;altitude;pressure_sealevel;temperature;humidity
43161;BME280;40968;52.342;5.528;2024-03-23T00:51:23;100993.41;;;6.68;90.34
43161;BME280;40968;52.342;5.528;2024-03-23T00:53:49;101053.75;;;7.01;90.43
43161;BME280;40968;52.342;5.528;2024-03-23T00:56:15;100817.59;;;5.56;90.27
43161;BME280;40968;52.342;5.528;2024-03-23T00:58:41;101012.66;;;6.73;90.69
43161;BME280;40968;52.342;5.528;2024-03-23T01:01:07;100978.28;;;6.52;90.67
43161;BME280;40968;52.342;5.528;2024-03-23T01:03:33;101002.53;;;6.63;91.01
43161;BME280;40968;52.342;5.528;2024-03-23T01:05:59;100829.69;;;5.61;90.76
43161;BME280;40968;52.342;5.528;2024-03-23T01:08:26;101035.19;;;6.83;90.98
43161;BME280;40968;52.342;5.528;2024-03-23T01:10:56;101030.03;;;6.80;91.03
43161;BME280;40968;52.342;5.528;2024-03-23T01:13:22;100815.03;;;5.54;90.88
43161;BME280;40968;52.342;5.528;2024-03-23T01:15:49;100870.00;;;5.87;90.91
43161;BME280;40968;52.342;5.528;2024-03-23T01:18:15;101012.66;;;6.73;91.17
43161;BME280;40968;52.342;5.528;2024-03-23T01:20:41;101024.44;;;6.69;91.16
43161;BME280;40968;52.342;5.528;2024-03-23T01:23:07;101005.88;;;6.67;91.12
43161;BME280;40968;52.342;5.528;2024-03-23T01:25:34;101008.63;;;6.66;91.39
43161;BME280;40968;52.342;5.528;2024-03-23T01:28:00;100960.50;;;6.37;91.31
43161;BME280;40968;52.342;5.528;2024-03-23T01:30:27;100970.19;;;6.38;91.25
43161;BME280;40968;52.342;5.528;2024-03-23T01:32:52;100923.59;;;6.13;91.22
43161;BME280;40968;52.342;5.528;2024-03-23T01:35:19;100777.91;;;5.19;90.76
43161;BME280;40968;52.342;5.528;2024-03-23T01:37:44;100995.78;;;6.56;91.14
43161;BME280;40968;52.342;5.528;2024-03-23T01:40:12;100997.69;;;6.54;91.19
43161;BME280;40968;52.342;5.528;2024-03-23T01:42:40;100896.25;;;5.93;91.39
43161;BME280;40968;52.342;5.528;2024-03-23T01:45:08;100784.44;;;5.29;91.16
43161;BME280;40968;52.342;5.528;2024-03-23T01:47:34;100990.03;;;6.48;91.41
43161;BME280;40968;52.342;5.528;2024-03-23T01:50:00;100944.91;;;6.13;91.48
43161;BME280;40968;52.342;5.528;2024-03-23T01:52:26;100982.22;;;6.45;91.55
43161;BME280;40968;52.342;5.528;2024-03-23T01:54:53;100824.44;;;5.44;91.63
43161;BME280;40968;52.342;5.528;2024-03-23T01:57:19;100979.66;;;6.43;91.86
43161;BME280;40968;52.342;5.528;2024-03-23T01:59:48;100981.44;;;6.43;91.63
43161;BME280;40968;52.342;5.528;2024-03-23T02:02:14;100880.13;;;5.80;91.58
43161;BME280;40968;52.342;5.528;2024-03-23T02:04:43;100762.44;;;5.10;91.59
43161;BME280;40968;52.342;5.528;2024-03-23T02:07:08;100966.75;;;6.36;91.74
43161;BME280;40968;52.342;5.528;2024-03-23T02:09:35;100963.31;;;6.34;91.89
43161;BME280;40968;52.342;5.528;2024-03-23T02:12:01;100961.59;;;6.33;91.91
43161;BME280;40968;52.342;5.528;2024-03-23T02:14:28;100774.31;;;5.20;92.04
43161;BME280;40968;52.342;5.528;2024-03-23T02:16:55;100957.28;;;6.30;92.40
43161;BME280;40968;52.342;5.528;2024-03-23T02:19:21;100954.72;;;6.28;92.26
43161;BME280;40968;52.342;5.528;2024-03-23T02:21:47;100738.22;;;4.98;92.18
43161;BME280;40968;52.342;5.528;2024-03-23T02:24:15;100727.78;;;4.95;92.14
43161;BME280;40968;52.342;5.528;2024-03-23T02:26:40;100947.84;;;6.24;92.47
43161;BME280;40968;52.342;5.528;2024-03-23T02:29:07;100955.91;;;6.23;92.53
43161;BME280;40968;52.342;5.528;2024-03-23T02:31:34;100864.09;;;5.64;92.63
43161;BME280;40968;52.342;5.528;2024-03-23T02:34:01;100949.03;;;6.19;92.81
43161;BME280;40968;52.342;5.528;2024-03-23T02:36:26;100953.66;;;6.15;92.93
43161;BME280;40968;52.342;5.528;2024-03-23T02:38:53;100873.19;;;5.60;93.13
43161;BME280;40968;52.342;5.528;2024-03-23T02:41:20;100955.53;;;6.13;93.45
43161;BME280;40968;52.342;5.528;2024-03-23T02:43:49;100952.13;;;6.11;93.55
43161;BME280;40968;52.342;5.528;2024-03-23T02:46:14;100948.66;;;6.09;93.64
43161;BME280;40968;52.342;5.528;2024-03-23T02:48:41;100944.38;;;6.06;93.76
43161;BME280;40968;52.342;5.528;2024-03-23T02:51:06;100932.19;;;6.02;93.80
43161;BME280;40968;52.342;5.528;2024-03-23T02:53:33;100943.69;;;6.03;93.79
43161;BME280;40968;52.342;5.528;2024-03-23T02:55:59;100896.31;;;5.76;93.94
43161;BME280;40968;52.342;5.528;2024-03-23T02:58:27;100879.19;;;5.64;93.97
43161;BME280;40968;52.342;5.528;2024-03-23T03:00:52;100927.97;;;5.98;93.94
43161;BME280;40968;52.342;5.528;2024-03-23T03:03:19;100938.66;;;5.96;93.94
43161;BME280;40968;52.342;5.528;2024-03-23T03:05:44;100936.94;;;5.95;93.85
43161;BME280;40968;52.342;5.528;2024-03-23T03:08:11;100928.16;;;5.93;93.67
43161;BME280;40968;52.342;5.528;2024-03-23T03:10:36;100876.94;;;5.56;93.77
43161;BME280;40968;52.342;5.528;2024-03-23T03:13:03;100943.47;;;5.90;93.72
43161;BME280;40968;52.342;5.528;2024-03-23T03:15:30;100939.16;;;5.87;93.16
43161;BME280;40968;52.342;5.528;2024-03-23T03:17:56;100946.34;;;5.85;93.21
43161;BME280;40968;52.342;5.528;2024-03-23T03:20:22;100658.00;;;4.06;93.10
43161;BME280;40968;52.342;5.528;2024-03-23T03:22:49;100888.59;;;5.54;93.33
43161;BME280;40968;52.342;5.528;2024-03-23T03:25:15;100929.00;;;5.78;93.15
43161;BME280;40968;52.342;5.528;2024-03-23T03:27:41;100931.03;;;5.73;93.04
43161;BME280;40968;52.342;5.528;2024-03-23T03:30:07;100931.03;;;5.73;93.03
43161;BME280;40968;52.342;5.528;2024-03-23T03:32:35;100931.19;;;5.70;92.97
43161;BME280;40968;52.342;5.528;2024-03-23T03:35:01;100688.16;;;4.22;92.60
43161;BME280;40968;52.342;5.528;2024-03-23T03:37:28;100922.59;;;5.64;92.93
43161;BME280;40968;52.342;5.528;2024-03-23T03:39:53;100716.56;;;4.38;92.63
43161;BME280;40968;52.342;5.528;2024-03-23T03:42:20;100922.94;;;5.58;92.71
43161;BME280;40968;52.342;5.528;2024-03-23T03:44:45;100859.34;;;5.20;92.88
43161;BME280;40968;52.342;5.528;2024-03-23T03:47:12;100920.41;;;5.55;92.79
43161;BME280;40968;52.342;5.528;2024-03-23T03:49:38;100858.53;;;5.18;92.57
43161;BME280;40968;52.342;5.528;2024-03-23T03:52:05;100819.44;;;4.68;92.49
43161;BME280;40968;52.342;5.528;2024-03-23T03:54:31;100916.38;;;5.48;92.42
43161;BME280;40968;52.342;5.528;2024-03-23T03:56:57;100917.38;;;5.45;92.27
43161;BME280;40968;52.342;5.528;2024-03-23T03:59:23;100544.53;;;3.23;91.95
43161;BME280;40968;52.342;5.528;2024-03-23T04:01:50;100799.41;;;4.79;92.06
43161;BME280;40968;52.342;5.528;2024-03-23T04:04:15;100900.97;;;5.37;92.10
43161;BME280;40968;52.342;5.528;2024-03-23T04:06:43;100790.59;;;4.61;91.91
43161;BME280;40968;52.342;5.528;2024-03-23T04:09:09;100780.72;;;4.63;91.88
43161;BME280;40968;52.342;5.528;2024-03-23T04:11:36;100890.75;;;5.29;91.77
43161;BME280;40968;52.342;5.528;2024-03-23T04:14:01;100846.97;;;5.02;91.94
43161;BME280;40968;52.342;5.528;2024-03-23T04:16:29;100879.78;;;5.18;91.85
43161;BME280;40968;52.342;5.528;2024-03-23T04:18:54;100884.00;;;5.22;91.80
43161;BME280;40968;52.342;5.528;2024-03-23T04:21:21;100889.50;;;5.19;91.67
43161;BME280;40968;52.342;5.528;2024-03-23T04:23:48;100878.16;;;5.15;91.64
43161;BME280;40968;52.342;5.528;2024-03-23T04:26:15;100882.75;;;5.12;91.56
43161;BME280;40968;52.342;5.528;2024-03-23T04:28:41;100884.47;;;5.13;91.61
43161;BME280;40968;52.342;5.528;2024-03-23T04:31:08;100875.75;;;5.11;91.26
43161;BME280;40968;52.342;5.528;2024-03-23T04:33:33;100875.81;;;5.09;91.44
43161;BME280;40968;52.342;5.528;2024-03-23T04:36:00;100813.00;;;4.73;91.52
43161;BME280;40968;52.342;5.528;2024-03-23T04:38:25;100877.59;;;5.09;91.63
43161;BME280;40968;52.342;5.528;2024-03-23T04:40:57;100880.25;;;5.09;91.77
43161;BME280;40968;52.342;5.528;2024-03-23T04:43:25;100777.44;;;4.41;91.77
43161;BME280;40968;52.342;5.528;2024-03-23T04:45:51;100877.78;;;5.06;91.83
43161;BME280;40968;52.342;5.528;2024-03-23T04:48:19;100886.50;;;5.08;91.67
43161;BME280;40968;52.342;5.528;2024-03-23T04:50:46;100886.50;;;5.08;91.87
43161;BME280;40968;52.342;5.528;2024-03-23T04:53:13;100823.69;;;4.72;91.59
43161;BME280;40968;52.342;5.528;2024-03-23T04:55:39;100881.38;;;5.05;91.71
43161;BME280;40968;52.342;5.528;2024-03-23T04:58:07;100652.81;;;3.68;91.50
43161;BME280;40968;52.342;5.528;2024-03-23T05:00:33;100821.34;;;4.65;91.37
43161;BME280;40968;52.342;5.528;2024-03-23T05:02:59;100879.81;;;5.01;91.29
43161;BME280;40968;52.342;5.528;2024-03-23T05:05:25;100882.50;;;4.99;91.21
43161;BME280;40968;52.342;5.528;2024-03-23T05:07:51;100877.38;;;4.96;90.69
43161;BME280;40968;52.342;5.528;2024-03-23T05:10:17;100680.75;;;3.75;90.45
43161;BME280;40968;52.342;5.528;2024-03-23T05:12:43;100814.78;;;4.55;90.23
43161;BME280;40968;52.342;5.528;2024-03-23T05:15:11;100615.69;;;3.31;89.97
43161;BME280;40968;52.342;5.528;2024-03-23T05:17:38;100880.25;;;4.91;89.86
43161;BME280;40968;52.342;5.528;2024-03-23T05:20:04;100880.25;;;4.91;89.66
43161;BME280;40968;52.342;5.528;2024-03-23T05:22:34;100876.81;;;4.89;89.41
43161;BME280;40968;52.342;5.528;2024-03-23T05:25:01;100592.31;;;3.03;88.97
43161;BME280;40968;52.342;5.528;2024-03-23T05:27:29;100634.66;;;3.41;88.95
43161;BME280;40968;52.342;5.528;2024-03-23T05:29:56;100665.41;;;3.62;88.68
43161;BME280;40968;52.342;5.528;2024-03-23T05:32:23;100835.00;;;4.58;88.72
43161;BME280;40968;52.342;5.528;2024-03-23T05:34:49;100878.00;;;4.84;88.78
43161;BME280;40968;52.342;5.528;2024-03-23T05:37:20;100603.72;;;3.22;88.33
43161;BME280;40968;52.342;5.528;2024-03-23T05:39:47;100638.06;;;3.43;88.47
43161;BME280;40968;52.342;5.528;2024-03-23T05:42:15;100880.56;;;4.85;88.63
43161;BME280;40968;52.342;5.528;2024-03-23T05:44:43;100883.94;;;4.89;88.63
43161;BME280;40968;52.342;5.528;2024-03-23T05:47:08;100825.56;;;4.52;88.64
43161;BME280;40968;52.342;5.528;2024-03-23T05:49:37;100903.22;;;4.92;88.97
43161;BME280;40968;52.342;5.528;2024-03-23T05:52:03;100598.84;;;3.13;88.93
43161;BME280;40968;52.342;5.528;2024-03-23T05:54:29;100882.84;;;4.93;89.50
43161;BME280;40968;52.342;5.528;2024-03-23T05:56:55;100571.63;;;3.11;89.63
43161;BME280;40968;52.342;5.528;2024-03-23T05:59:21;100882.75;;;4.94;90.07
43161;BME280;40968;52.342;5.528;2024-03-23T06:01:47;100877.38;;;4.96;90.37
43161;BME280;40968;52.342;5.528;2024-03-23T06:04:14;100874.63;;;4.97;90.50
43161;BME280;40968;52.342;5.528;2024-03-23T06:06:41;100875.41;;;5.00;90.66
43161;BME280;40968;52.342;5.528;2024-03-23T06:09:07;100874.63;;;4.97;90.58
43161;BME280;40968;52.342;5.528;2024-03-23T06:11:33;100875.34;;;5.01;90.73
43161;BME280;40968;52.342;5.528;2024-03-23T06:14:00;100678.72;;;3.80;90.60
43161;BME280;40968;52.342;5.528;2024-03-23T06:16:25;100655.63;;;3.64;90.74
43161;BME280;40968;52.342;5.528;2024-03-23T06:18:53;100865.09;;;4.93;90.72
43161;BME280;40968;52.342;5.528;2024-03-23T06:21:20;100852.44;;;4.81;90.87
43161;BME280;40968;52.342;5.528;2024-03-23T06:23:51;100635.94;;;3.51;90.53
43161;BME280;40968;52.342;5.528;2024-03-23T06:26:17;100615.59;;;3.32;90.59
43161;BME280;40968;52.342;5.528;2024-03-23T06:28:44;100817.34;;;4.57;90.75
43161;BME280;40968;52.342;5.528;2024-03-23T06:31:10;100865.41;;;4.87;90.51
43161;BME280;40968;52.342;5.528;2024-03-23T06:33:36;100753.13;;;4.13;90.67
43161;BME280;40968;52.342;5.528;2024-03-23T06:36:02;100864.75;;;4.82;90.87
43161;BME280;40968;52.342;5.528;2024-03-23T06:38:29;100865.72;;;4.81;90.75
43161;BME280;40968;52.342;5.528;2024-03-23T06:40:56;100804.59;;;4.46;90.77
43161;BME280;40968;52.342;5.528;2024-03-23T06:43:23;100857.75;;;4.81;91.00
43161;BME280;40968;52.342;5.528;2024-03-23T06:45:52;100643.94;;;3.49;90.81
43161;BME280;40968;52.342;5.528;2024-03-23T06:48:19;100815.56;;;4.57;90.93
43161;BME280;40968;52.342;5.528;2024-03-23T06:50:44;100543.22;;;2.95;90.69
43161;BME280;40968;52.342;5.528;2024-03-23T06:53:11;100620.44;;;3.42;90.67
43161;BME280;40968;52.342;5.528;2024-03-23T06:55:37;100860.03;;;4.89;90.92
43161;BME280;40968;52.342;5.528;2024-03-23T06:58:05;100866.03;;;4.92;90.79
43161;BME280;40968;52.342;5.528;2024-03-23T07:00:30;100864.16;;;4.94;90.76
43161;BME280;40968;52.342;5.528;2024-03-23T07:02:57;100648.47;;;3.47;90.79
43161;BME280;40968;52.342;5.528;2024-03-23T07:05:23;100670.47;;;3.86;90.95
43161;BME280;40968;52.342;5.528;2024-03-23T07:07:49;100865.34;;;5.06;91.21
43161;BME280;40968;52.342;5.528;2024-03-23T07:10:15;100799.63;;;4.75;90.88
43161;BME280;40968;52.342;5.528;2024-03-23T07:12:41;100729.19;;;4.32;90.58
43161;BME280;40968;52.342;5.528;2024-03-23T07:15:09;100811.22;;;4.91;90.48
43161;BME280;40968;52.342;5.528;2024-03-23T07:17:36;100850.47;;;5.20;90.71
43161;BME280;40968;52.342;5.528;2024-03-23T07:20:02;100798.88;;;4.90;90.53
43161;BME280;40968;52.342;5.528;2024-03-23T07:22:29;100672.69;;;4.13;90.18
43161;BME280;40968;52.342;5.528;2024-03-23T07:24:54;100648.28;;;4.06;89.86
43161;BME280;40968;52.342;5.528;2024-03-23T07:27:21;100867.97;;;5.41;89.85
43161;BME280;40968;52.342;5.528;2024-03-23T07:29:46;100856.16;;;5.47;89.42
43161;BME280;40968;52.342;5.528;2024-03-23T07:32:14;100829.38;;;5.34;88.89
43161;BME280;40968;52.342;5.528;2024-03-23T07:34:40;100857.41;;;5.57;88.40
43161;BME280;40968;52.342;5.528;2024-03-23T07:37:08;100770.94;;;5.17;87.63
43161;BME280;40968;52.342;5.528;2024-03-23T07:39:34;100868.94;;;5.74;87.39
43161;BME280;40968;52.342;5.528;2024-03-23T07:42:00;100554.97;;;3.98;86.11
43161;BME280;40968;52.342;5.528;2024-03-23T07:44:26;100801.75;;;5.54;85.67
43161;BME280;40968;52.342;5.528;2024-03-23T07:46:52;100794.97;;;5.64;84.49
43161;BME280;40968;52.342;5.528;2024-03-23T07:49:19;100796.19;;;5.75;84.38
43161;BME280;40968;52.342;5.528;2024-03-23T07:51:46;100706.59;;;5.27;84.14
43161;BME280;40968;52.342;5.528;2024-03-23T07:54:11;100822.84;;;6.07;83.39
43161;BME280;40968;52.342;5.528;2024-03-23T07:56:38;100529.91;;;4.21;83.92
43161;BME280;40968;52.342;5.528;2024-03-23T07:59:04;100849.69;;;6.18;83.84
43161;BME280;40968;52.342;5.528;2024-03-23T08:01:30;100848.84;;;6.18;84.07
43161;BME280;40968;52.342;5.528;2024-03-23T08:03:56;100802.56;;;5.88;84.15
43161;BME280;40968;52.342;5.528;2024-03-23T08:06:23;100853.34;;;6.17;84.03
43161;BME280;40968;52.342;5.528;2024-03-23T08:08:51;100844.47;;;6.17;83.24
43161;BME280;40968;52.342;5.528;2024-03-23T08:11:24;100638.63;;;4.90;83.56
43161;BME280;40968;52.342;5.528;2024-03-23T08:13:50;100850.16;;;6.26;83.75
43161;BME280;40968;52.342;5.528;2024-03-23T08:16:16;100857.00;;;6.30;83.03
43161;BME280;40968;52.342;5.528;2024-03-23T08:18:42;100793.28;;;5.95;81.36
43161;BME280;40968;52.342;5.528;2024-03-23T08:21:09;100852.63;;;6.29;78.05
43161;BME280;40968;52.342;5.528;2024-03-23T08:23:36;100834.63;;;6.19;76.83
43161;BME280;40968;52.342;5.528;2024-03-23T08:26:05;100839.56;;;6.25;77.56
43161;BME280;40968;52.342;5.528;2024-03-23T08:28:31;100794.53;;;6.06;77.86
43161;BME280;40968;52.342;5.528;2024-03-23T08:31:00;100790.56;;;6.13;78.75
43161;BME280;40968;52.342;5.528;2024-03-23T08:33:26;100849.44;;;6.55;78.92
43161;BME280;40968;52.342;5.528;2024-03-23T08:35:54;100654.66;;;5.38;77.64
43161;BME280;40968;52.342;5.528;2024-03-23T08:38:20;100852.53;;;6.63;76.65
43161;BME280;40968;52.342;5.528;2024-03-23T08:40:55;100650.03;;;5.41;75.92
43161;BME280;40968;52.342;5.528;2024-03-23T08:43:21;100623.47;;;5.25;75.52
43161;BME280;40968;52.342;5.528;2024-03-23T08:45:48;100866.69;;;6.63;75.95
43161;BME280;40968;52.342;5.528;2024-03-23T08:48:14;100352.25;;;3.54;74.87
43161;BME280;40968;52.342;5.528;2024-03-23T08:50:40;100776.06;;;6.19;75.10
43161;BME280;40968;52.342;5.528;2024-03-23T08:53:06;100614.00;;;5.36;74.30
43161;BME280;40968;52.342;5.528;2024-03-23T08:55:33;100851.97;;;6.88;73.39
43161;BME280;40968;52.342;5.528;2024-03-23T08:58:00;100854.84;;;7.00;72.13
43161;BME280;40968;52.342;5.528;2024-03-23T09:00:26;100841.94;;;7.08;71.60
43161;BME280;40968;52.342;5.528;2024-03-23T09:02:52;100586.34;;;5.40;71.73
43161;BME280;40968;52.342;5.528;2024-03-23T09:05:19;100690.47;;;6.10;71.64
43161;BME280;40968;52.342;5.528;2024-03-23T09:07:44;100792.16;;;6.78;71.26
43161;BME280;40968;52.342;5.528;2024-03-23T09:10:11;100783.13;;;6.80;70.42
43161;BME280;40968;52.342;5.528;2024-03-23T09:12:36;100641.50;;;5.98;70.45
43161;BME280;40968;52.342;5.528;2024-03-23T09:15:05;100749.91;;;6.72;69.95
43161;BME280;40968;52.342;5.528;2024-03-23T09:17:31;100817.19;;;7.35;68.64
43161;BME280;40968;52.342;5.528;2024-03-23T09:19:57;100718.53;;;6.91;68.75
43161;BME280;40968;52.342;5.528;2024-03-23T09:22:23;100845.91;;;7.74;67.97
43161;BME280;40968;52.342;5.528;2024-03-23T09:24:49;100621.00;;;6.45;67.51
43161;BME280;40968;52.342;5.528;2024-03-23T09:27:15;100832.94;;;7.83;67.34
43161;BME280;40968;52.342;5.528;2024-03-23T09:29:41;100800.63;;;7.44;65.82
43161;BME280;40968;52.342;5.528;2024-03-23T09:32:08;100605.09;;;6.29;66.15
43161;BME280;40968;52.342;5.528;2024-03-23T09:34:35;100748.28;;;7.00;63.63
43161;BME280;40968;52.342;5.528;2024-03-23T09:37:00;100656.47;;;6.46;63.99
43161;BME280;40968;52.342;5.528;2024-03-23T09:39:27;100712.00;;;6.83;65.09
43161;BME280;40968;52.342;5.528;2024-03-23T09:41:56;100828.56;;;7.67;64.86
43161;BME280;40968;52.342;5.528;2024-03-23T09:44:24;100861.34;;;7.55;62.96
43161;BME280;40968;52.342;5.528;2024-03-23T09:46:51;100785.38;;;7.03;62.82
43161;BME280;40968;52.342;5.528;2024-03-23T09:49:19;100849.41;;;7.32;63.46
43161;BME280;40968;52.342;5.528;2024-03-23T09:51:45;100853.59;;;7.36;64.37
43161;BME280;40968;52.342;5.528;2024-03-23T09:54:11;100863.41;;;7.35;64.97
43161;BME280;40968;52.342;5.528;2024-03-23T09:56:37;100807.44;;;7.05;64.88
43161;BME280;40968;52.342;5.528;2024-03-23T09:59:04;100789.66;;;7.05;66.20
43161;BME280;40968;52.342;5.528;2024-03-23T10:01:30;100841.03;;;7.52;66.67
43161;BME280;40968;52.342;5.528;2024-03-23T10:03:56;100655.53;;;6.61;67.79
43161;BME280;40968;52.342;5.528;2024-03-23T10:06:23;100797.97;;;7.44;67.65
43161;BME280;40968;52.342;5.528;2024-03-23T10:08:51;100863.13;;;7.54;67.92
43161;BME280;40968;52.342;5.528;2024-03-23T10:11:18;100794.06;;;6.76;70.05
43161;BME280;40968;52.342;5.528;2024-03-23T10:13:46;100850.47;;;6.99;71.94
43161;BME280;40968;52.342;5.528;2024-03-23T10:16:12;100806.75;;;6.40;73.96
43161;BME280;40968;52.342;5.528;2024-03-23T10:18:47;100845.28;;;6.65;75.89
43161;BME280;40968;52.342;5.528;2024-03-23T10:21:14;100389.88;;;3.94;76.75
43161;BME280;40968;52.342;5.528;2024-03-23T10:23:43;100615.13;;;5.31;77.09
43161;BME280;40968;52.342;5.528;2024-03-23T10:26:17;100777.81;;;6.50;77.83
43161;BME280;40968;52.342;5.528;2024-03-23T10:28:54;100847.13;;;6.95;76.91
43161;BME280;40968;52.342;5.528;2024-03-23T10:31:22;100837.50;;;6.92;75.42
43161;BME280;40968;52.342;5.528;2024-03-23T10:33:49;100673.41;;;5.98;74.32
43161;BME280;40968;52.342;5.528;2024-03-23T10:36:15;100818.59;;;6.97;74.45
43161;BME280;40968;52.342;5.528;2024-03-23T10:38:43;100755.63;;;6.66;73.33
43161;BME280;40968;52.342;5.528;2024-03-23T10:41:10;100837.56;;;7.21;71.46
43161;BME280;40968;52.342;5.528;2024-03-23T10:43:37;100848.59;;;7.15;69.73
43161;BME280;40968;52.342;5.528;2024-03-23T10:46:03;100830.13;;;7.12;71.87
43161;BME280;40968;52.342;5.528;2024-03-23T10:48:30;100348.50;;;4.24;71.28
43161;BME280;40968;52.342;5.528;2024-03-23T10:50:56;100648.44;;;6.01;70.80
43161;BME280;40968;52.342;5.528;2024-03-23T10:53:25;100742.25;;;6.51;70.62
43161;BME280;40968;52.342;5.528;2024-03-23T10:55:54;100762.28;;;6.73;71.17
43161;BME280;40968;52.342;5.528;2024-03-23T10:58:24;100746.66;;;6.67;70.22
43161;BME280;40968;52.342;5.528;2024-03-23T11:00:52;100819.50;;;7.26;69.97
43161;BME280;40968;52.342;5.528;2024-03-23T11:03:32;100662.53;;;6.48;69.41
43161;BME280;40968;52.342;5.528;2024-03-23T11:05:59;100827.31;;;7.58;67.06
43161;BME280;40968;52.342;5.528;2024-03-23T11:08:33;100699.53;;;7.12;65.51
43161;BME280;40968;52.342;5.528;2024-03-23T11:11:18;100793.94;;;7.94;65.31
43161;BME280;40968;52.342;5.528;2024-03-23T11:13:47;100783.03;;;8.12;63.70
43161;BME280;40968;52.342;5.528;2024-03-23T11:16:14;100668.50;;;7.67;64.91
43161;BME280;40968;52.342;5.528;2024-03-23T11:18:41;100597.13;;;7.02;68.92
43161;BME280;40968;52.342;5.528;2024-03-23T11:21:07;100851.47;;;8.13;68.71
43161;BME280;40968;52.342;5.528;2024-03-23T11:23:34;100835.31;;;7.87;67.95
43161;BME280;40968;52.342;5.528;2024-03-23T11:25:59;100706.75;;;7.24;68.50
43161;BME280;40968;52.342;5.528;2024-03-23T11:28:27;100599.22;;;6.96;68.19
43161;BME280;40968;52.342;5.528;2024-03-23T11:30:53;100816.50;;;8.59;67.50
43161;BME280;40968;52.342;5.528;2024-03-23T11:33:19;100789.63;;;8.88;64.16
43161;BME280;40968;52.342;5.528;2024-03-23T11:35:45;100599.53;;;7.61;61.07
43161;BME280;40968;52.342;5.528;2024-03-23T11:38:12;100589.59;;;7.77;60.36
43161;BME280;40968;52.342;5.528;2024-03-23T11:40:39;100535.34;;;7.64;60.52
43161;BME280;40968;52.342;5.528;2024-03-23T11:43:08;100592.19;;;7.92;57.97
43161;BME280;40968;52.342;5.528;2024-03-23T11:45:36;100305.44;;;6.12;58.49
43161;BME280;40968;52.342;5.528;2024-03-23T11:48:04;100761.81;;;8.78;59.40
43161;BME280;40968;52.342;5.528;2024-03-23T11:50:30;100807.19;;;9.18;62.11
43161;BME280;40968;52.342;5.528;2024-03-23T11:53:07;100708.16;;;8.41;57.39
43161;BME280;40968;52.342;5.528;2024-03-23T11:55:39;100825.97;;;9.04;55.51
43161;BME280;40968;52.342;5.528;2024-03-23T11:58:06;100788.22;;;8.95;55.30
43161;BME280;40968;52.342;5.528;2024-03-23T12:00:31;100801.22;;;9.27;56.69
43161;BME280;40968;52.342;5.528;2024-03-23T12:03:01;100731.47;;;9.18;56.15
43161;BME280;40968;52.342;5.528;2024-03-23T12:05:27;100796.91;;;9.63;56.98
43161;BME280;40968;52.342;5.528;2024-03-23T12:07:53;100796.72;;;9.54;56.84
43161;BME280;40968;52.342;5.528;2024-03-23T12:10:19;100796.47;;;9.83;56.07
43161;BME280;40968;52.342;5.528;2024-03-23T12:12:46;100784.06;;;10.06;55.72
43161;BME280;40968;52.342;5.528;2024-03-23T12:15:11;100790.94;;;10.34;55.22
43161;BME280;40968;52.342;5.528;2024-03-23T12:17:38;100712.75;;;10.05;53.98
43161;BME280;40968;52.342;5.528;2024-03-23T12:20:06;100746.34;;;10.33;53.02
43161;BME280;40968;52.342;5.528;2024-03-23T12:22:33;100792.94;;;10.68;53.25
43161;BME280;40968;52.342;5.528;2024-03-23T12:25:00;100613.03;;;9.66;53.93
43161;BME280;40968;52.342;5.528;2024-03-23T12:27:27;100780.50;;;10.67;52.64
43161;BME280;40968;52.342;5.528;2024-03-23T12:29:52;100718.38;;;10.37;52.88
43161;BME280;40968;52.342;5.528;2024-03-23T12:32:19;100552.78;;;9.36;53.65
43161;BME280;40968;52.342;5.528;2024-03-23T12:34:45;100583.41;;;9.32;56.10
43161;BME280;40968;52.342;5.528;2024-03-23T12:37:13;100694.19;;;9.90;58.71
43161;BME280;40968;52.342;5.528;2024-03-23T12:39:39;100767.44;;;10.13;56.99
43161;BME280;40968;52.342;5.528;2024-03-23T12:42:06;100470.41;;;8.29;55.78
43161;BME280;40968;52.342;5.528;2024-03-23T12:44:32;100777.84;;;10.05;56.67
43161;BME280;40968;52.342;5.528;2024-03-23T12:46:58;100714.00;;;9.38;58.55
43161;BME280;40968;52.342;5.528;2024-03-23T12:49:24;100800.22;;;9.28;59.30
43161;BME280;40968;52.342;5.528;2024-03-23T12:51:54;100822.16;;;8.68;58.56
43161;BME280;40968;52.342;5.528;2024-03-23T12:54:21;100596.63;;;7.09;61.06
43161;BME280;40968;52.342;5.528;2024-03-23T12:56:48;100597.16;;;6.73;64.14
43161;BME280;40968;52.342;5.528;2024-03-23T12:59:14;100785.41;;;7.60;64.48
43161;BME280;40968;52.342;5.528;2024-03-23T13:01:41;100604.28;;;6.13;65.92
43161;BME280;40968;52.342;5.528;2024-03-23T13:04:07;100835.69;;;7.23;68.81
43161;BME280;40968;52.342;5.528;2024-03-23T13:06:34;100781.16;;;6.54;71.30
43161;BME280;40968;52.342;5.528;2024-03-23T13:09:00;100672.31;;;5.71;72.12
43161;BME280;40968;52.342;5.528;2024-03-23T13:11:28;100823.13;;;6.64;73.82
43161;BME280;40968;52.342;5.528;2024-03-23T13:13:53;100782.06;;;6.69;74.50
43161;BME280;40968;52.342;5.528;2024-03-23T13:16:20;100801.19;;;7.20;74.11
43161;BME280;40968;52.342;5.528;2024-03-23T13:18:45;100709.38;;;6.67;72.60
43161;BME280;40968;52.342;5.528;2024-03-23T13:21:12;100797.00;;;7.74;72.47
43161;BME280;40968;52.342;5.528;2024-03-23T13:23:38;100802.88;;;8.08;70.46
43161;BME280;40968;52.342;5.528;2024-03-23T13:26:07;100516.75;;;6.80;68.63
43161;BME280;40968;52.342;5.528;2024-03-23T13:28:34;100695.81;;;7.85;67.50
43161;BME280;40968;52.342;5.528;2024-03-23T13:31:02;100533.50;;;6.83;66.26
43161;BME280;40968;52.342;5.528;2024-03-23T13:33:29;100557.25;;;7.00;65.15
43161;BME280;40968;52.342;5.528;2024-03-23T13:35:56;100756.72;;;8.20;60.76
43161;BME280;40968;52.342;5.528;2024-03-23T13:38:22;100728.34;;;8.05;59.87
43161;BME280;40968;52.342;5.528;2024-03-23T13:40:53;100592.53;;;7.18;60.81
43161;BME280;40968;52.342;5.528;2024-03-23T13:43:18;100787.19;;;8.30;60.42
43161;BME280;40968;52.342;5.528;2024-03-23T13:45:47;100739.38;;;8.13;61.03
43161;BME280;40968;52.342;5.528;2024-03-23T13:48:15;100769.91;;;8.63;61.51